Time;durP1;ratioP1;P1;durP2;ratioP2;P2;SDS_P1;SDS_P2;PMS_P1;PMS_P2;Temp;Humidity;BMP_temperature;BMP_pressure;BME280_temperature;BME280_humidity;BME280_pressure;Samples;Min_cycle;Max_cycle;Signal;HPM_P1;HPM_P2
2023/04/13 00:02:40;;;;;;;11.13;5.00;;;4.20;99.90;;;;;;5013539;28;20136;-84
2023/04/13 00:05:08;;;;;;;10.00;5.23;;;4.90;99.90;;;;;;5036040;28;20481;-85
2023/04/13 00:07:37;;;;;;;10.37;4.87;;;4.40;99.90;;;;;;5036908;28;20040;-84
2023/04/13 00:10:05;;;;;;;12.03;5.13;;;4.40;99.90;;;;;;5036703;28;20090;-85
2023/04/13 00:12:32;;;;;;;12.03;5.30;;;4.50;99.90;;;;;;5036265;28;20520;-84
2023/04/13 00:14:57;;;;;;;11.47;4.87;;;4.50;99.90;;;;;;5036935;28;20101;-85
2023/04/13 00:17:25;;;;;;;9.83;4.57;;;4.60;99.90;;;;;;5037236;28;20079;-85
2023/04/13 00:19:52;;;;;;;15.33;6.03;;;4.70;99.90;;;;;;5050960;28;20072;-85
2023/04/13 00:22:18;;;;;;;11.40;5.03;;;4.70;99.90;;;;;;5054056;28;20045;-85
2023/04/13 00:24:44;;;;;;;12.30;5.07;;;4.80;99.90;;;;;;5054630;28;20040;-84
2023/04/13 00:27:10;;;;;;;10.10;4.70;;;4.90;99.90;;;;;;5053950;28;20068;-84
2023/04/13 00:29:37;;;;;;;11.40;4.83;;;4.90;99.90;;;;;;5054789;28;20046;-84
2023/04/13 00:32:04;;;;;;;11.83;5.20;;;4.90;99.90;;;;;;5054813;28;20052;-85
2023/04/13 00:34:30;;;;;;;9.50;4.40;;;4.90;99.90;;;;;;5052339;28;20045;-85
2023/04/13 00:37:03;;;;;;;11.07;4.57;;;6.30;99.90;;;;;;5057662;28;20059;-85
2023/04/13 00:39:30;;;;;;;10.07;4.27;;;4.70;99.90;;;;;;5045067;28;20044;-84
2023/04/13 00:41:58;;;;;;;16.00;4.57;;;5.70;99.90;;;;;;5053857;28;20041;-85
2023/04/13 00:44:39;;;;;;;12.50;4.30;;;5.00;99.90;;;;;;5040427;28;20037;-85
2023/04/13 00:47:05;;;;;;;9.10;3.80;;;4.60;99.90;;;;;;5037131;28;20127;-84
2023/04/13 00:49:34;;;;;;;8.93;3.67;;;5.00;99.90;;;;;;5036283;28;20112;-84
2023/04/13 00:52:01;;;;;;;10.07;3.70;;;5.20;99.90;;;;;;5036310;28;20123;-85
2023/04/13 00:54:28;;;;;;;9.50;3.40;;;5.40;99.90;;;;;;5035573;28;20052;-84
2023/04/13 00:56:56;;;;;;;7.97;3.30;;;5.40;99.90;;;;;;5036594;28;20056;-85
2023/04/13 00:59:22;;;;;;;7.63;3.07;;;5.50;99.90;;;;;;5036070;28;20051;-85
2023/04/13 01:01:55;;;;;;;7.70;3.17;;;5.50;99.90;;;;;;5053427;28;20037;-85
2023/04/13 01:04:24;;;;;;;11.87;3.03;;;5.60;99.90;;;;;;5036565;28;20053;-84
2023/04/13 01:07:01;;;;;;;9.77;3.13;;;5.70;99.90;;;;;;5048940;22;20399;-85
2023/04/13 01:09:39;;;;;;;8.63;3.07;;;5.70;99.90;;;;;;5024153;28;20045;-84
2023/04/13 01:12:16;;;;;;;8.07;2.80;;;5.60;99.90;;;;;;5033583;28;20500;-84
2023/04/13 01:15:00;;;;;;;7.73;2.77;;;5.60;99.90;;;;;;5032425;28;20095;-84
2023/04/13 01:17:31;;;;;;;10.30;3.00;;;5.90;99.90;;;;;;5032678;28;20504;-83
2023/04/13 01:20:00;;;;;;;9.00;3.07;;;5.50;99.90;;;;;;5032174;28;20489;-84
2023/04/13 01:22:30;;;;;;;7.80;2.77;;;6.00;99.90;;;;;;5038718;28;20048;-83
2023/04/13 01:25:24;;;;;;;6.83;2.50;;;5.40;99.90;;;;;;5033657;28;20124;-83
2023/04/13 01:27:56;;;;;;;8.98;2.75;;;5.40;99.90;;;;;;5032730;28;20256;-83
2023/04/13 01:30:25;;;;;;;8.10;2.77;;;5.40;99.90;;;;;;5036898;28;20402;-83
2023/04/13 01:32:51;;;;;;;9.30;2.73;;;5.30;99.90;;;;;;5016295;28;20041;-83
2023/04/13 01:35:19;;;;;;;9.10;2.97;;;5.30;99.90;;;;;;5032922;28;20378;-84
2023/04/13 01:37:45;;;;;;;10.03;3.60;;;5.30;99.90;;;;;;5032388;28;20107;-83
2023/04/13 01:40:12;;;;;;;9.43;3.03;;;5.30;99.90;;;;;;5033274;28;20116;-83
2023/04/13 01:42:42;;;;;;;8.73;2.63;;;5.30;99.90;;;;;;5015858;28;20107;-83
2023/04/13 01:45:18;;;;;;;6.90;2.37;;;5.20;99.90;;;;;;5032719;28;20091;-84
2023/04/13 01:47:50;;;;;;;10.60;2.97;;;5.30;99.90;;;;;;5015839;28;20049;-83
2023/04/13 01:50:32;;;;;;;8.23;2.60;;;5.20;99.90;;;;;;5032557;28;20041;-84
2023/04/13 01:53:06;;;;;;;8.13;2.80;;;5.20;99.90;;;;;;5014955;28;20049;-83
2023/04/13 01:55:36;;;;;;;9.87;2.70;;;5.20;99.90;;;;;;5015564;28;20073;-83
2023/04/13 01:58:03;;;;;;;9.13;2.80;;;5.20;99.90;;;;;;5014616;28;20049;-84
2023/04/13 02:00:36;;;;;;;8.03;2.70;;;5.20;99.90;;;;;;5033237;28;20069;-83
2023/04/13 02:03:08;;;;;;;9.20;2.73;;;5.20;99.90;;;;;;5033296;28;20045;-84
2023/04/13 02:05:41;;;;;;;7.47;2.80;;;5.30;99.90;;;;;;5014202;28;20625;-85
2023/04/13 02:08:08;;;;;;;8.40;2.97;;;5.20;99.90;;;;;;5020189;28;20048;-83
2023/04/13 02:10:35;;;;;;;9.90;2.87;;;5.30;99.90;;;;;;5042868;28;20496;-83
2023/04/13 02:13:02;;;;;;;8.63;2.90;;;5.70;99.90;;;;;;5034606;28;20041;-83
2023/04/13 02:15:29;;;;;;;8.37;2.80;;;5.30;99.90;;;;;;5038406;28;20107;-83
2023/04/13 02:17:55;;;;;;;9.53;2.97;;;5.20;99.90;;;;;;5015643;28;20049;-83
2023/04/13 02:20:20;;;;;;;8.00;2.80;;;5.20;99.90;;;;;;5032156;28;20366;-83
2023/04/13 02:22:47;;;;;;;8.37;2.53;;;5.20;99.90;;;;;;5033200;28;20048;-83
2023/04/13 02:25:14;;;;;;;9.37;2.80;;;5.30;99.90;;;;;;4998275;28;20555;-83
2023/04/13 02:27:40;;;;;;;7.97;2.80;;;5.20;99.90;;;;;;5032678;28;20037;-83
2023/04/13 02:30:08;;;;;;;9.07;3.10;;;5.20;99.90;;;;;;5014903;28;20041;-82
2023/04/13 02:32:39;;;;;;;8.57;3.00;;;5.20;99.90;;;;;;5032114;28;20053;-83
2023/04/13 02:35:10;;;;;;;8.87;2.90;;;5.20;99.90;;;;;;5031701;28;20387;-82
2023/04/13 02:37:38;;;;;;;9.47;2.73;;;5.20;99.90;;;;;;5032475;28;20540;-82
2023/04/13 02:40:11;;;;;;;10.93;3.33;;;6.40;99.90;;;;;;5013990;28;20076;-82
2023/04/13 02:42:56;;;;;;;9.00;3.30;;;5.20;99.90;;;;;;5015188;28;20072;-82
2023/04/13 02:45:22;;;;;;;9.63;2.93;;;5.20;99.90;;;;;;5032716;28;20052;-82
2023/04/13 02:47:47;;;;;;;7.70;2.80;;;5.20;99.90;;;;;;5014316;28;20041;-82
2023/04/13 02:50:13;;;;;;;9.40;2.80;;;5.60;99.90;;;;;;5014832;28;20056;-82
2023/04/13 02:52:39;;;;;;;8.57;3.20;;;5.20;99.90;;;;;;5014462;28;20504;-82
2023/04/13 02:55:05;;;;;;;8.97;3.27;;;5.20;99.90;;;;;;5031625;28;20041;-82
2023/04/13 02:57:31;;;;;;;10.07;3.43;;;5.20;99.90;;;;;;5014881;28;20540;-82
2023/04/13 02:59:57;;;;;;;10.03;3.10;;;5.20;99.90;;;;;;5032429;28;20041;-82
2023/04/13 03:02:25;;;;;;;8.80;3.23;;;5.20;99.90;;;;;;5031745;28;20375;-82
2023/04/13 03:05:11;;;;;;;10.20;3.10;;;5.20;99.90;;;;;;5014544;28;20042;-82
2023/04/13 03:07:37;;;;;;;9.30;2.67;;;5.50;99.90;;;;;;5009987;28;20050;-82
2023/04/13 03:10:24;;;;;;;9.63;3.10;;;5.20;99.90;;;;;;5012514;28;20042;-81
2023/04/13 03:12:50;;;;;;;9.67;3.10;;;5.20;99.90;;;;;;5015502;28;20046;-82
2023/04/13 03:15:17;;;;;;;8.33;3.00;;;5.20;99.90;;;;;;5011896;28;20083;-82
2023/04/13 03:17:58;;;;;;;11.10;3.47;;;6.10;99.90;;;;;;5011262;28;20054;-82
2023/04/13 03:20:24;;;;;;;11.07;3.20;;;5.70;99.90;;;;;;5012474;28;20474;-82
2023/04/13 03:22:52;;;;;;;8.87;3.20;;;4.80;99.90;;;;;;5016827;28;20038;-82
2023/04/13 03:25:38;;;;;;;9.43;3.00;;;5.30;99.90;;;;;;5016318;28;20049;-82
2023/04/13 03:28:04;;;;;;;11.20;3.13;;;5.30;99.90;;;;;;5014595;28;20041;-82
2023/04/13 03:30:30;;;;;;;9.27;2.70;;;5.30;99.90;;;;;;5015508;28;20199;-82
2023/04/13 03:33:11;;;;;;;8.83;3.30;;;5.30;99.90;;;;;;5015724;28;20046;-82
2023/04/13 03:35:36;;;;;;;14.60;3.30;;;5.30;99.90;;;;;;5015528;28;20053;-82
2023/04/13 03:38:02;;;;;;;10.53;3.53;;;4.70;99.90;;;;;;5017356;28;20629;-82
2023/04/13 03:40:28;;;;;;;9.77;3.30;;;5.30;99.90;;;;;;5016121;28;20505;-82
2023/04/13 03:43:03;;;;;;;10.20;3.20;;;5.30;99.90;;;;;;5016228;28;20081;-82
2023/04/13 03:45:29;;;;;;;11.30;3.63;;;5.10;99.90;;;;;;5015793;28;20065;-82
2023/04/13 03:47:54;;;;;;;10.33;3.50;;;5.10;99.90;;;;;;5015674;28;20490;-82
2023/04/13 03:50:20;;;;;;;9.60;3.43;;;5.00;99.90;;;;;;5013204;28;20049;-82
2023/04/13 03:52:46;;;;;;;11.23;3.37;;;5.40;99.90;;;;;;5014314;28;20050;-82
2023/04/13 03:55:14;;;;;;;8.77;3.33;;;5.40;99.90;;;;;;5015491;28;20038;-82
2023/04/13 03:57:40;;;;;;;10.90;3.60;;;6.40;99.90;;;;;;5013738;28;20046;-82
2023/04/13 04:00:10;;;;;;;9.33;3.30;;;5.40;99.90;;;;;;5013924;28;20049;-82
2023/04/13 04:02:36;;;;;;;11.03;3.20;;;5.50;99.90;;;;;;5013654;28;20081;-82
2023/04/13 04:05:02;;;;;;;10.30;3.17;;;5.50;99.90;;;;;;5012764;28;20396;-82
2023/04/13 04:07:28;;;;;;;8.10;2.77;;;5.50;99.90;;;;;;5028595;28;20144;-82
2023/04/13 04:09:53;;;;;;;9.73;3.33;;;5.50;99.90;;;;;;5034697;28;20115;-82
2023/04/13 04:12:19;;;;;;;10.83;3.60;;;5.60;99.90;;;;;;5034408;28;20045;-82
2023/04/13 04:14:46;;;;;;;11.97;2.97;;;5.60;99.90;;;;;;5033631;28;20029;-82
2023/04/13 04:17:12;;;;;;;8.67;3.03;;;5.60;99.90;;;;;;5035050;28;20045;-82
2023/04/13 04:19:37;;;;;;;11.17;3.20;;;5.60;99.90;;;;;;5032894;28;20091;-82
2023/04/13 04:22:05;;;;;;;11.43;3.47;;;5.70;99.90;;;;;;5033576;28;20136;-83
2023/04/13 04:24:31;;;;;;;9.03;3.33;;;5.70;99.90;;;;;;5033741;28;20049;-82
2023/04/13 04:26:59;;;;;;;9.67;3.90;;;5.70;99.90;;;;;;5034009;28;20072;-82
2023/04/13 04:29:34;;;;;;;11.10;4.20;;;5.80;99.90;;;;;;5034714;28;20053;-83
2023/04/13 04:32:01;;;;;;;14.13;5.13;;;5.80;99.90;;;;;;5032221;28;20049;-82
2023/04/13 04:34:30;;;;;;;13.40;6.67;;;5.90;99.90;;;;;;5032404;28;20041;-82
2023/04/13 04:36:56;;;;;;;14.20;7.27;;;6.00;99.90;;;;;;5016208;28;20044;-82
2023/04/13 04:39:25;;;;;;;12.43;6.20;;;5.80;99.90;;;;;;5034211;28;20053;-82
2023/04/13 04:42:01;;;;;;;10.20;4.43;;;5.90;99.90;;;;;;5017323;28;20053;-82
2023/04/13 04:44:31;;;;;;;10.67;3.63;;;5.90;99.90;;;;;;5013424;28;20046;-83
2023/04/13 04:47:01;;;;;;;9.40;3.50;;;5.90;99.90;;;;;;5014123;28;20381;-83
2023/04/13 04:49:27;;;;;;;8.80;3.37;;;5.90;99.90;;;;;;5013241;28;20498;-83
2023/04/13 04:51:54;;;;;;;12.73;4.07;;;5.90;99.90;;;;;;5032433;28;20136;-82
2023/04/13 04:59:24;;;;;;;11.67;3.50;;;5.90;99.90;;;;;;5026677;22;20045;-83
2023/04/13 05:01:49;;;;;;;12.27;3.57;;;5.80;99.90;;;;;;5015251;28;20060;-82
2023/04/13 05:04:15;;;;;;;11.10;3.53;;;5.80;99.90;;;;;;5036851;28;20037;-82
2023/04/13 05:06:41;;;;;;;9.57;3.67;;;5.80;99.90;;;;;;5030622;28;20102;-83
2023/04/13 05:09:07;;;;;;;11.87;4.00;;;5.80;99.90;;;;;;5016647;28;20573;-83
2023/04/13 05:11:33;;;;;;;11.63;3.93;;;5.80;99.90;;;;;;5034969;28;20037;-83
2023/04/13 05:14:00;;;;;;;9.60;3.40;;;5.80;99.90;;;;;;5033740;28;20072;-83
2023/04/13 05:16:29;;;;;;;10.33;4.20;;;5.80;99.90;;;;;;5016126;28;20045;-82
2023/04/13 05:18:55;;;;;;;9.73;3.90;;;5.80;99.90;;;;;;5015924;28;20057;-83
2023/04/13 05:21:21;;;;;;;10.80;3.67;;;6.70;99.90;;;;;;5015427;28;20037;-82
2023/04/13 05:23:49;;;;;;;10.43;3.90;;;5.70;99.90;;;;;;5015871;28;20076;-82
2023/04/13 05:26:15;;;;;;;10.63;3.77;;;5.90;99.90;;;;;;5015722;28;20051;-83
2023/04/13 05:28:42;;;;;;;10.63;3.70;;;5.60;99.90;;;;;;5032424;28;20046;-82
2023/04/13 05:31:09;;;;;;;12.07;3.87;;;5.60;99.90;;;;;;5023313;28;20092;-83
2023/04/13 05:33:36;;;;;;;10.27;3.50;;;5.60;99.90;;;;;;5031753;28;20056;-82
2023/04/13 05:36:03;;;;;;;13.73;4.03;;;5.60;99.90;;;;;;5032648;28;20037;-83
2023/04/13 05:38:29;;;;;;;9.53;3.93;;;5.60;99.90;;;;;;5033312;28;20136;-83
2023/04/13 05:40:56;;;;;;;9.50;3.70;;;5.60;99.90;;;;;;5032071;28;20068;-83
2023/04/13 05:43:22;;;;;;;12.00;3.87;;;7.10;99.90;;;;;;5031426;28;20081;-82
2023/04/13 05:45:48;;;;;;;11.97;4.43;;;5.70;99.90;;;;;;5031655;28;20114;-82
2023/04/13 05:48:13;;;;;;;12.53;4.60;;;5.70;99.90;;;;;;5033005;28;20041;-82
2023/04/13 05:50:42;;;;;;;17.60;5.03;;;5.70;99.90;;;;;;5030976;28;20515;-83
2023/04/13 05:53:08;;;;;;;13.50;4.87;;;5.80;99.90;;;;;;5033038;28;20037;-83
2023/04/13 05:55:34;;;;;;;17.77;5.10;;;5.70;99.90;;;;;;5033025;28;20396;-83
2023/04/13 05:58:03;;;;;;;12.43;4.83;;;5.80;99.90;;;;;;5030789;28;20053;-83
2023/04/13 06:00:29;;;;;;;12.27;4.57;;;5.80;99.90;;;;;;5031353;28;20038;-83
2023/04/13 06:03:00;;;;;;;14.73;5.10;;;5.90;99.90;;;;;;5031939;28;20099;-83
2023/04/13 06:05:25;;;;;;;16.17;4.90;;;7.00;99.90;;;;;;5030889;28;20436;-83
2023/04/13 06:07:52;;;;;;;17.10;5.27;;;6.00;99.90;;;;;;5031556;28;20053;-83
2023/04/13 06:10:18;;;;;;;15.73;5.53;;;6.10;99.90;;;;;;5031168;28;20041;-83
2023/04/13 06:12:47;;;;;;;14.43;4.93;;;6.50;99.90;;;;;;5031267;28;20049;-83
2023/04/13 06:15:13;;;;;;;15.57;5.27;;;6.30;99.90;;;;;;5025626;22;20493;-83
2023/04/13 06:17:38;;;;;;;13.90;5.30;;;6.30;99.90;;;;;;5011079;28;20050;-83
2023/04/13 06:20:07;;;;;;;16.40;5.30;;;6.40;99.90;;;;;;5011603;28;20057;-83
2023/04/13 06:22:33;;;;;;;13.80;4.73;;;6.40;99.90;;;;;;4993677;28;20074;-82
2023/04/13 06:25:00;;;;;;;15.23;4.63;;;6.40;99.90;;;;;;4974938;28;20043;-83
2023/04/13 06:27:25;;;;;;;12.57;5.00;;;6.40;99.90;;;;;;5011038;28;20046;-82
2023/04/13 06:29:51;;;;;;;12.90;4.77;;;7.80;99.90;;;;;;5011777;28;20693;-83
2023/04/13 06:32:20;;;;;;;13.50;4.67;;;7.60;99.90;;;;;;5011176;28;20391;-83
2023/04/13 06:34:45;;;;;;;14.27;5.07;;;6.50;99.90;;;;;;5018186;28;20049;-83
2023/04/13 06:37:11;;;;;;;15.97;5.17;;;6.50;99.90;;;;;;5011903;28;20049;-83
2023/04/13 06:39:37;;;;;;;14.03;4.83;;;6.50;99.90;;;;;;5016558;28;20038;-83
2023/04/13 06:42:03;;;;;;;14.57;4.63;;;6.60;99.90;;;;;;5023896;28;20513;-83
2023/04/13 06:44:29;;;;;;;15.67;4.83;;;6.60;99.90;;;;;;5012191;28;20125;-83
2023/04/13 06:46:55;;;;;;;19.50;10.88;;;6.70;99.90;;;;;;5011112;28;20458;-84
2023/04/13 06:49:21;;;;;;;11.98;5.07;;;6.70;99.90;;;;;;5012858;28;20046;-86
2023/04/13 06:51:50;;;;;;;11.63;4.53;;;6.70;99.90;;;;;;5014426;28;20042;-84
2023/04/13 06:54:15;;;;;;;13.33;5.17;;;6.70;99.90;;;;;;5011020;28;20494;-86
2023/04/13 06:56:43;;;;;;;14.07;5.27;;;6.90;99.90;;;;;;5013116;28;20053;-86
2023/04/13 06:59:09;;;;;;;13.63;5.18;;;6.90;99.90;;;;;;5018362;28;20405;-85
2023/04/13 07:01:36;;;;;;;13.32;4.28;;;8.20;99.90;;;;;;5019125;28;20042;-85
2023/04/13 07:04:06;;;;;;;20.30;11.90;;;7.00;99.90;;;;;;5016691;28;20128;-87
2023/04/13 07:06:32;;;;;;;12.37;5.20;;;7.20;99.90;;;;;;5014025;28;20110;-86
2023/04/13 07:08:58;;;;;;;11.50;4.63;;;9.00;99.90;;;;;;5013726;28;20490;-84
2023/04/13 07:11:26;;;;;;;11.80;4.57;;;7.40;99.90;;;;;;5014009;28;20143;-84
2023/04/13 07:13:54;;;;;;;11.73;4.53;;;8.60;99.90;;;;;;5029148;22;20594;-85
2023/04/13 07:16:20;;;;;;;12.85;4.80;;;8.60;99.90;;;;;;5005819;28;20046;-85
2023/04/13 07:18:46;;;;;;;10.15;4.03;;;7.50;99.90;;;;;;5035007;28;20052;-85
2023/04/13 07:21:15;;;;;;;11.17;4.40;;;7.50;99.90;;;;;;5034825;28;20120;-84
2023/04/13 07:23:53;;;;;;;9.43;4.13;;;7.50;99.90;;;;;;5034887;28;20053;-84
2023/04/13 07:26:18;;;;;;;11.73;4.60;;;7.30;99.90;;;;;;5035242;28;20037;-86
2023/04/13 07:28:49;;;;;;;13.75;4.30;;;7.50;99.90;;;;;;5023798;28;20100;-85
2023/04/13 07:31:21;;;;;;;14.38;4.45;;;6.60;99.90;;;;;;5020349;28;20065;-85
2023/04/13 07:34:02;;;;;;;11.23;4.20;;;8.80;99.90;;;;;;5024367;28;20136;-85
2023/04/13 07:36:32;;;;;;;12.18;4.00;;;8.00;99.90;;;;;;5034845;28;20025;-85
2023/04/13 07:39:04;;;;;;;12.68;4.50;;;7.40;99.90;;;;;;5033680;28;20399;-85
2023/04/13 07:41:29;;;;;;;13.10;4.32;;;7.60;99.90;;;;;;5033747;28;20405;-85
2023/04/13 07:47:26;;;;;;;11.82;4.10;;;7.80;99.90;;;;;;5018937;28;20076;-87
2023/04/13 07:50:05;;;;;;;11.53;4.00;;;9.40;99.90;;;;;;4996095;28;20069;-88
2023/04/13 07:52:31;;;;;;;12.90;6.13;;;7.70;99.90;;;;;;4996557;28;20084;-85
2023/04/13 07:55:08;;;;;;;13.25;5.22;;;7.20;99.90;;;;;;4996806;28;20100;-85
2023/04/13 07:57:35;;;;;;;11.50;3.85;;;8.00;99.90;;;;;;5012575;28;20062;-86
2023/04/13 08:00:21;;;;;;;11.63;3.60;;;9.10;99.90;;;;;;5004331;28;20050;-85
2023/04/13 08:03:16;;;;;;;16.67;5.88;;;8.30;99.90;;;;;;5008295;28;20046;-86
2023/04/13 08:05:50;;;;;;;9.73;3.60;;;7.90;99.90;;;;;;5013435;28;20134;-86
2023/04/13 08:08:19;;;;;;;8.75;3.50;;;9.50;99.90;;;;;;4980550;28;20485;-85
2023/04/13 08:10:50;;;;;;;10.10;3.35;;;7.70;99.90;;;;;;4977695;28;20039;-86
2023/04/13 08:13:35;;;;;;;8.45;2.97;;;8.00;99.90;;;;;;4993350;28;20054;-85
2023/04/13 08:16:25;;;;;;;9.27;2.85;;;7.70;99.90;;;;;;4979307;28;20376;-86
2023/04/13 08:18:57;;;;;;;9.13;2.90;;;7.90;99.90;;;;;;5033511;28;20050;-86
2023/04/13 08:21:22;;;;;;;10.52;3.88;;;9.30;99.90;;;;;;5034916;28;20029;-86
2023/04/13 08:23:55;;;;;;;10.18;3.40;;;7.90;99.90;;;;;;5033614;28;20512;-86
2023/04/13 08:26:25;;;;;;;10.02;3.20;;;7.60;99.90;;;;;;5034253;28;20084;-85
2023/04/13 08:28:56;;;;;;;11.10;3.60;;;8.10;99.90;;;;;;5033874;28;20049;-85
2023/04/13 08:31:37;;;;;;;9.32;3.35;;;10.10;99.90;;;;;;5033381;28;20101;-85
2023/04/13 08:34:18;;;;;;;10.23;4.38;;;9.10;99.90;;;;;;5031562;28;20037;-86
2023/04/13 08:36:54;;;;;;;10.20;4.22;;;8.40;99.90;;;;;;5020384;28;20128;-84
2023/04/13 08:39:38;;;;;;;10.45;4.40;;;9.00;99.90;;;;;;5034851;28;20049;-87
2023/04/13 08:42:17;;;;;;;12.13;4.10;;;9.60;99.90;;;;;;5034272;28;20179;-87
2023/04/13 08:44:56;;;;;;;12.68;4.57;;;9.60;99.90;;;;;;5034297;28;20099;-86
2023/04/13 08:47:35;;;;;;;10.50;3.97;;;9.50;99.90;;;;;;5030365;28;20053;-86
2023/04/13 08:50:01;;;;;;;11.48;5.18;;;8.30;99.90;;;;;;5017400;28;20490;-87
2023/04/13 08:56:46;;;;;;;11.52;4.60;;;8.20;99.90;;;;;;5022438;28;20129;-86
2023/04/13 08:59:22;;;;;;;9.65;4.45;;;8.60;99.90;;;;;;5032836;28;20509;-86
2023/04/13 09:08:20;;;;;;;9.70;3.90;;;8.50;99.90;;;;;;5007199;28;20041;-87
2023/04/13 09:11:07;;;;;;;10.73;4.22;;;7.50;99.90;;;;;;5010570;28;20076;-87
2023/04/13 09:13:52;;;;;;;9.65;3.95;;;9.70;99.90;;;;;;5021985;28;20049;-88
2023/04/13 09:16:37;;;;;;;10.43;5.10;;;7.70;99.90;;;;;;5033341;28;20072;-87
2023/04/13 09:19:03;;;;;;;11.02;4.68;;;8.20;99.90;;;;;;5032191;28;20489;-87
2023/04/13 09:21:49;;;;;;;10.02;4.75;;;8.00;99.90;;;;;;5000268;28;20472;-86
2023/04/13 09:24:15;;;;;;;10.32;4.88;;;7.90;99.90;;;;;;5016853;28;20049;-87
2023/04/13 09:26:57;;;;;;;9.43;3.67;;;7.40;99.90;;;;;;5015346;28;20037;-86
2023/04/13 09:29:53;;;;;;;10.00;4.50;;;7.30;99.90;;;;;;5018644;28;20137;-88
2023/04/13 09:32:26;;;;;;;9.63;2.80;;;7.90;99.90;;;;;;5075328;22;20048;-88
2023/04/13 09:35:04;;;;;;;8.23;2.40;;;8.20;99.90;;;;;;5043350;28;20045;-86
2023/04/13 09:37:36;;;;;;;15.75;7.43;;;7.70;99.90;;;;;;5057771;28;20128;-86
2023/04/13 09:40:13;;;;;;;19.20;11.32;;;9.10;99.90;;;;;;5015882;28;20111;-86
2023/04/13 09:42:41;;;;;;;7.25;2.53;;;7.50;99.90;;;;;;5034325;28;20374;-85
2023/04/13 09:45:15;;;;;;;16.20;7.53;;;7.30;99.90;;;;;;5053382;28;20037;-82
2023/04/13 09:48:01;;;;;;;15.10;8.15;;;6.80;99.90;;;;;;5052981;28;20041;-82
2023/04/13 09:50:30;;;;;;;9.25;4.15;;;8.20;99.90;;;;;;5053327;28;20400;-81
2023/04/13 09:53:11;;;;;;;10.47;3.67;;;6.20;99.90;;;;;;5049667;28;20060;-82
2023/04/13 09:55:37;;;;;;;28.48;16.90;;;6.10;99.90;;;;;;5050921;28;20377;-82
2023/04/13 09:58:14;;;;;;;11.47;4.83;;;6.50;99.90;;;;;;5052588;28;20378;-82
2023/04/13 10:00:45;;;;;;;37.67;25.15;;;8.10;99.90;;;;;;5053458;28;20080;-82
2023/04/13 10:03:15;;;;;;;62.63;43.10;;;7.10;99.90;;;;;;5050763;28;20382;-82
2023/04/13 10:05:41;;;;;;;10.07;4.05;;;7.30;99.90;;;;;;5059555;22;20115;-82
2023/04/13 10:08:08;;;;;;;8.57;2.67;;;7.50;99.90;;;;;;5031807;28;20073;-82
2023/04/13 10:10:36;;;;;;;24.65;15.27;;;7.70;99.90;;;;;;5013934;28;20041;-82
2023/04/13 10:13:13;;;;;;;11.02;3.03;;;7.80;99.90;;;;;;5031957;28;20049;-81
2023/04/13 10:15:39;;;;;;;11.57;6.60;;;7.90;99.90;;;;;;5032581;28;20049;-82
2023/04/13 10:18:46;;;;;;;9.57;2.80;;;8.00;99.90;;;;;;5031178;28;21699;-82
2023/04/13 10:21:13;;;;;;;8.60;2.72;;;8.10;99.90;;;;;;5031944;28;20056;-82
2023/04/13 10:23:42;;;;;;;9.95;3.35;;;9.40;99.90;;;;;;5032499;28;20045;-82
2023/04/13 10:26:08;;;;;;;9.32;3.20;;;9.00;99.90;;;;;;5035673;28;20532;-82
2023/04/13 10:29:01;;;;;;;11.23;2.55;;;9.20;99.90;;;;;;5032051;28;20107;-82
2023/04/13 10:31:47;;;;;;;9.77;2.50;;;9.50;99.90;;;;;;5029016;28;20225;-83
2023/04/13 10:34:24;;;;;;;11.15;3.53;;;9.60;99.90;;;;;;5023221;28;20437;-83
2023/04/13 10:36:53;;;;;;;8.73;2.10;;;10.40;99.90;;;;;;5037239;28;20084;-83
2023/04/13 10:39:43;;;;;;;9.50;2.50;;;9.70;99.90;;;;;;5035088;28;20041;-83
2023/04/13 10:42:11;;;;;;;20.70;14.25;;;9.30;99.90;;;;;;5008657;28;20060;-83
2023/04/13 10:44:52;;;;;;;7.03;2.00;;;9.30;99.90;;;;;;5018523;28;20042;-85
2023/04/13 10:47:20;;;;;;;9.43;2.30;;;8.90;99.90;;;;;;5017540;28;20516;-83
2023/04/13 10:49:47;;;;;;;10.82;2.28;;;8.90;99.90;;;;;;5035889;28;20064;-85
2023/04/13 10:52:13;;;;;;;8.23;2.10;;;8.90;99.90;;;;;;5017973;28;20037;-86
2023/04/13 10:54:40;;;;;;;10.77;2.70;;;8.90;99.90;;;;;;5037374;28;20037;-85
2023/04/13 10:57:08;;;;;;;9.63;2.88;;;8.90;99.90;;;;;;5019749;28;20503;-87
2023/04/13 10:59:52;;;;;;;8.27;2.63;;;9.50;99.90;;;;;;5017323;28;20050;-86
2023/04/13 11:02:18;;;;;;;;;;;9.30;99.90;;;;;;5036974;28;20048;-86
2023/04/13 11:04:46;;;;;;;11.82;2.78;;;10.70;99.90;;;;;;5026927;28;19921;-86
2023/04/13 11:07:15;;;;;;;10.77;2.97;;;9.70;99.90;;;;;;5014950;28;20413;-85
2023/04/13 11:09:45;;;;;;;12.95;3.00;;;9.90;99.90;;;;;;5014549;28;20052;-84
2023/04/13 11:12:15;;;;;;;12.68;2.55;;;10.50;99.90;;;;;;5014823;28;20052;-85
2023/04/13 11:14:48;;;;;;;10.90;2.58;;;9.90;99.90;;;;;;5015512;28;20408;-84
2023/04/13 11:17:16;;;;;;;12.00;2.70;;;9.80;99.90;;;;;;5014786;28;20436;-84
2023/04/13 11:19:52;;;;;;;12.75;3.90;;;9.70;99.90;;;;;;5014765;28;20414;-85
2023/04/13 11:22:21;;;;;;;12.70;3.78;;;9.60;99.90;;;;;;5015627;28;20520;-83
2023/04/13 11:24:48;;;;;;;14.40;3.20;;;9.60;99.90;;;;;;5015318;28;20046;-82
2023/04/13 11:27:22;;;;;;;13.32;3.40;;;9.70;99.90;;;;;;5013456;28;20042;-82
2023/04/13 11:29:58;;;;;;;15.63;3.00;;;9.90;99.90;;;;;;5012437;28;20049;-82
2023/04/13 11:32:26;;;;;;;9.20;2.30;;;9.90;99.90;;;;;;5015632;28;20046;-82
2023/04/13 11:34:52;;;;;;;9.73;2.03;;;9.80;99.90;;;;;;5012615;28;20057;-82
2023/04/13 11:37:18;;;;;;;9.50;2.10;;;9.80;99.90;;;;;;5014980;28;20034;-82
2023/04/13 11:39:44;;;;;;;14.52;2.80;;;9.80;99.90;;;;;;5013429;28;20038;-82
2023/04/13 11:42:11;;;;;;;13.90;2.80;;;9.90;99.90;;;;;;5014778;28;20138;-83
2023/04/13 11:44:37;;;;;;;9.98;2.30;;;9.90;99.90;;;;;;5015164;28;20092;-83
2023/04/13 11:47:04;;;;;;;10.73;2.75;;;9.90;99.90;;;;;;5014293;28;20535;-82
2023/04/13 11:49:30;;;;;;;9.60;2.17;;;9.80;99.90;;;;;;5014610;28;20413;-82
2023/04/13 11:52:00;;;;;;;9.20;2.22;;;9.80;99.90;;;;;;5013560;28;20042;-83
2023/04/13 11:54:27;;;;;;;9.55;2.33;;;9.90;99.90;;;;;;5014146;28;20045;-82
2023/04/13 11:56:53;;;;;;;12.35;2.80;;;10.00;99.90;;;;;;5014920;28;20065;-82
2023/04/13 11:59:23;;;;;;;12.93;2.67;;;10.30;99.90;;;;;;5013851;28;20489;-82
2023/04/13 12:01:49;;;;;;;13.60;2.45;;;10.10;99.90;;;;;;5014336;28;20060;-82
2023/04/13 12:04:14;;;;;;;10.50;2.53;;;11.60;99.90;;;;;;5004694;28;20514;-81
2023/04/13 12:06:42;;;;;;;10.95;2.20;;;10.80;99.90;;;;;;5005213;28;20052;-83
2023/04/13 12:09:08;;;;;;;10.70;2.22;;;11.40;99.90;;;;;;5033274;28;20434;-83
2023/04/13 12:11:42;;;;;;;11.27;2.83;;;10.90;99.90;;;;;;5017235;28;20046;-83
2023/04/13 12:14:17;;;;;;;10.88;2.83;;;10.70;99.90;;;;;;5023952;28;20045;-84
2023/04/13 12:16:47;;;;;;;11.82;2.97;;;10.50;99.90;;;;;;5035117;28;20077;-83
2023/04/13 12:19:12;;;;;;;11.88;2.60;;;10.40;99.90;;;;;;5032622;28;20495;-83
2023/04/13 12:21:48;;;;;;;12.40;3.20;;;10.10;99.90;;;;;;5033822;28;20041;-83
2023/04/13 12:24:14;;;;;;;11.68;2.50;;;11.40;99.90;;;;;;5034066;28;20041;-83
2023/04/13 12:26:40;;;;;;;12.48;2.85;;;10.00;99.90;;;;;;5020490;28;20477;-83
2023/04/13 12:29:07;;;;;;;14.23;2.55;;;10.00;99.90;;;;;;5034626;28;20055;-83
2023/04/13 12:31:34;;;;;;;10.63;2.30;;;9.90;99.90;;;;;;5020578;28;20048;-82
2023/04/13 12:34:04;;;;;;;9.02;2.63;;;9.90;99.90;;;;;;5034387;28;20055;-82
2023/04/13 12:36:32;;;;;;;13.55;2.92;;;10.50;99.90;;;;;;5034533;28;20045;-82
2023/04/13 12:38:58;;;;;;;15.00;3.00;;;10.00;99.90;;;;;;5033417;28;20100;-82
2023/04/13 12:41:23;;;;;;;10.90;2.53;;;11.40;99.90;;;;;;5034648;28;20041;-82
2023/04/13 12:43:49;;;;;;;11.52;2.13;;;10.60;99.90;;;;;;5020882;28;20555;-82
2023/04/13 12:46:19;;;;;;;11.32;2.28;;;11.80;99.90;;;;;;5033264;28;20049;-83
2023/04/13 12:48:45;;;;;;;10.57;2.33;;;11.90;99.90;;;;;;5032734;28;20053;-83
2023/04/13 12:51:11;;;;;;;8.35;2.38;;;11.90;99.90;;;;;;5033993;28;20041;-83
2023/04/13 12:53:37;;;;;;;9.70;2.40;;;10.70;99.90;;;;;;5033382;28;20103;-83
2023/04/13 12:56:02;;;;;;;11.40;2.25;;;10.60;99.90;;;;;;5033216;28;20072;-84
2023/04/13 12:58:28;;;;;;;9.63;2.30;;;10.60;99.90;;;;;;5033362;28;20041;-83
2023/04/13 13:00:54;;;;;;;13.75;2.80;;;11.00;99.90;;;;;;5032709;28;20554;-83
2023/04/13 13:03:20;;;;;;;13.75;2.28;;;11.60;99.90;;;;;;5033983;28;20037;-84
2023/04/13 13:05:45;;;;;;;10.98;2.47;;;12.20;99.90;;;;;;5031765;28;20520;-83
2023/04/13 13:08:11;;;;;;;10.80;2.50;;;12.60;99.90;;;;;;5032320;28;20103;-83
2023/04/13 13:10:38;;;;;;;9.82;2.00;;;12.20;99.90;;;;;;5033964;28;20053;-83
2023/04/13 13:13:05;;;;;;;10.35;2.33;;;11.60;99.90;;;;;;5031340;28;20049;-83
2023/04/13 13:15:31;;;;;;;13.48;2.20;;;11.00;99.90;;;;;;5033320;28;20053;-82
2023/04/13 13:17:59;;;;;;;10.40;2.30;;;11.30;99.90;;;;;;5032124;28;20041;-83
2023/04/13 13:20:25;;;;;;;10.82;2.80;;;11.20;99.90;;;;;;5032983;28;20057;-83
2023/04/13 13:22:50;;;;;;;10.23;2.42;;;12.10;99.90;;;;;;5032116;28;20090;-82
2023/04/13 13:25:16;;;;;;;9.38;2.10;;;11.80;99.90;;;;;;5031781;28;20132;-83